Time;durP1;ratioP1;P1;durP2;ratioP2;P2;SDS_P1;SDS_P2;PMS_P1;PMS_P2;Temp;Humidity;BMP_temperature;BMP_pressure;BME280_temperature;BME280_humidity;BME280_pressure;Samples;Min_cycle;Max_cycle;Signal;HPM_P1;HPM_P2
2021/05/18 00:00:35;;;;;;;;;;;11.60;87.60;;;;;;5065921;28;20119;-67
2021/05/18 00:03:01;;;;;;;2.55;0.20;;;11.70;87.90;;;;;;5066460;28;19905;-67
2021/05/18 00:05:27;;;;;;;;;;;11.70;87.60;;;;;;5067226;28;20036;-66
2021/05/18 00:13:03;;;;;;;0.38;0.20;;;11.60;88.50;;;;;;5066282;28;19977;-66
2021/05/18 00:15:29;;;;;;;0.82;0.20;;;11.60;88.40;;;;;;5066397;28;20056;-67
2021/05/18 00:17:54;;;;;;;;;;;11.60;88.10;;;;;;5066691;28;20070;-67
2021/05/18 00:20:20;;;;;;;0.50;0.20;;;11.60;88.50;;;;;;5064959;28;19904;-67
2021/05/18 00:22:46;;;;;;;;;;;11.50;89.20;;;;;;5065260;28;20028;-67
2021/05/18 00:25:13;;;;;;;2.07;0.20;;;11.50;89.70;;;;;;5066396;28;19908;-67
2021/05/18 00:27:40;;;;;;;0.68;0.30;;;11.40;89.20;;;;;;5066480;28;20032;-67
2021/05/18 00:30:07;;;;;;;1.73;0.38;;;11.50;89.20;;;;;;5066524;28;20017;-66
2021/05/18 00:32:33;;;;;;;0.70;0.20;;;11.50;89.40;;;;;;5064993;28;20127;-67
2021/05/18 00:34:58;;;;;;;;;;;11.40;89.50;;;;;;5066401;28;20128;-67
2021/05/18 00:37:25;;;;;;;0.70;0.30;;;11.40;90.20;;;;;;5066318;28;20277;-68
2021/05/18 00:39:52;;;;;;;3.38;0.68;;;11.30;91.10;;;;;;5065995;28;20516;-66
2021/05/18 00:42:22;;;;;;;2.13;0.65;;;11.20;91.80;;;;;;5066250;28;20127;-66
2021/05/18 00:44:53;;;;;;;2.72;0.40;;;11.20;92.60;;;;;;5064915;28;20069;-66
2021/05/18 00:47:18;;;;;;;0.88;0.32;;;11.10;93.10;;;;;;5065674;28;20063;-67
2021/05/18 00:49:44;;;;;;;;;;;11.00;93.50;;;;;;5065926;28;20032;-67
2021/05/18 00:52:10;;;;;;;1.60;0.32;;;11.00;93.90;;;;;;5066083;28;20373;-66
2021/05/18 00:54:47;;;;;;;3.55;0.50;;;10.90;93.90;;;;;;5066102;28;20048;-66
2021/05/18 00:59:57;;;;;;;0.40;0.25;;;10.80;94.30;;;;;;5066090;28;19991;-68
2021/05/18 01:02:23;;;;;;;;;;;10.80;94.30;;;;;;5066434;28;20119;-67
2021/05/18 01:04:55;;;;;;;0.80;0.40;;;10.70;94.40;;;;;;5065642;28;19908;-67
2021/05/18 01:07:21;;;;;;;2.97;0.50;;;10.70;94.40;;;;;;5065567;28;20054;-67
2021/05/18 01:09:47;;;;;;;2.45;0.40;;;10.70;94.40;;;;;;5065539;28;20040;-67
2021/05/18 01:12:12;;;;;;;;;;;10.70;94.50;;;;;;5066115;28;20032;-67
2021/05/18 01:14:38;;;;;;;3.97;0.45;;;10.70;94.50;;;;;;5065925;28;20564;-66
2021/05/18 01:17:04;;;;;;;;;;;10.70;94.20;;;;;;5066469;28;20499;-67
2021/05/18 01:19:31;;;;;;;2.22;0.38;;;10.80;94.10;;;;;;5065745;28;19909;-66
2021/05/18 01:21:59;;;;;;;1.10;0.40;;;10.80;94.20;;;;;;5065565;28;20051;-67
2021/05/18 01:24:25;;;;;;;1.15;0.30;;;10.80;94.40;;;;;;5065993;28;20021;-67
2021/05/18 01:26:51;;;;;;;0.85;0.40;;;10.80;94.40;;;;;;5066103;28;20067;-66
2021/05/18 01:29:19;;;;;;;;;;;10.80;94.20;;;;;;5065965;28;20063;-67
2021/05/18 01:31:46;;;;;;;1.13;0.38;;;10.80;94.10;;;;;;5065555;28;19995;-66
2021/05/18 01:34:12;;;;;;;1.30;0.40;;;10.90;94.00;;;;;;5065591;28;20581;-66
2021/05/18 01:36:38;;;;;;;1.05;0.32;;;10.90;94.10;;;;;;5065769;28;20408;-67
2021/05/18 01:44:25;;;;;;;0.80;0.45;;;10.90;93.90;;;;;;5065955;28;20136;-66
2021/05/18 01:46:52;;;;;;;;;;;11.00;93.60;;;;;;5066101;28;20135;-67
2021/05/18 01:49:18;;;;;;;2.05;0.40;;;11.00;93.50;;;;;;5065280;28;19908;-65
2021/05/18 01:51:48;;;;;;;;;;;11.00;93.50;;;;;;5066000;28;20400;-66
2021/05/18 01:54:23;;;;;;;3.28;0.40;;;11.00;93.00;;;;;;5065652;28;19908;-67
2021/05/18 01:59:19;;;;;;;0.95;0.43;;;11.00;93.60;;;;;;5065135;28;20025;-67
2021/05/18 02:01:47;;;;;;;1.70;0.30;;;11.00;93.80;;;;;;5068523;28;20043;-67
2021/05/18 02:04:23;;;;;;;2.10;0.40;;;11.00;94.10;;;;;;5069171;28;20389;-67
2021/05/18 02:06:50;;;;;;;3.28;1.48;;;11.00;93.90;;;;;;5067243;28;20382;-66
2021/05/18 02:09:16;;;;;;;0.93;0.40;;;11.00;93.70;;;;;;5069086;28;20036;-67
2021/05/18 02:11:42;;;;;;;1.20;0.40;;;11.00;94.00;;;;;;5069041;28;20117;-66
2021/05/18 02:14:12;;;;;;;;;;;11.00;94.20;;;;;;5069430;28;20052;-66
2021/05/18 02:16:40;;;;;;;2.33;0.52;;;11.00;94.30;;;;;;5068874;28;20023;-66
2021/05/18 02:26:42;;;;;;;1.23;0.50;;;10.90;94.60;;;;;;5068961;28;20523;-66
2021/05/18 02:29:07;;;;;;;;;;;10.90;95.00;;;;;;5069105;28;20103;-67
2021/05/18 02:31:34;;;;;;;5.65;0.60;;;10.90;94.90;;;;;;5068357;28;19908;-67
2021/05/18 02:33:59;;;;;;;2.20;0.60;;;10.90;95.00;;;;;;5068127;28;20024;-66
2021/05/18 02:36:26;;;;;;;;;;;10.90;95.10;;;;;;5068964;28;20117;-66
2021/05/18 02:38:53;;;;;;;0.73;0.40;;;10.90;95.30;;;;;;5068592;28;19923;-67
2021/05/18 02:41:19;;;;;;;1.60;0.60;;;10.90;95.00;;;;;;5067998;28;20072;-66
2021/05/18 02:44:11;;;;;;;2.33;0.68;;;11.00;95.00;;;;;;5067353;28;20132;-67
2021/05/18 02:49:16;;;;;;;4.22;0.52;;;11.10;95.20;;;;;;5068139;28;20504;-66
2021/05/18 02:51:44;;;;;;;1.83;0.70;;;11.10;95.20;;;;;;5068217;28;20565;-66
2021/05/18 02:54:12;;;;;;;3.53;0.95;;;11.10;95.30;;;;;;5066986;28;20020;-66
2021/05/18 02:56:46;;;;;;;2.22;0.93;;;11.10;95.40;;;;;;5066621;28;20144;-66
2021/05/18 02:59:15;;;;;;;6.97;1.20;;;11.10;95.60;;;;;;5068292;28;20500;-66
2021/05/18 03:01:44;;;;;;;2.08;1.42;;;11.10;95.70;;;;;;5067539;28;20033;-67
2021/05/18 03:04:10;;;;;;;1.95;1.45;;;11.10;95.90;;;;;;5066782;28;20056;-67
2021/05/18 03:06:35;;;;;;;;;;;11.10;95.90;;;;;;5067779;28;20067;-66
2021/05/18 03:09:07;;;;;;;8.00;1.58;;;11.10;96.10;;;;;;5067629;28;19908;-66
2021/05/18 03:11:34;;;;;;;3.80;1.08;;;11.10;96.10;;;;;;5067581;28;20034;-67
2021/05/18 03:13:59;;;;;;;;;;;11.10;96.10;;;;;;5068266;28;20028;-66
2021/05/18 03:16:25;;;;;;;2.15;1.27;;;11.10;95.80;;;;;;5067448;28;19923;-66
2021/05/18 03:18:50;;;;;;;2.47;0.93;;;11.10;95.60;;;;;;5066972;28;20546;-65
2021/05/18 03:21:16;;;;;;;;;;;11.10;95.20;;;;;;5067451;28;20135;-67
2021/05/18 03:23:42;;;;;;;4.70;0.80;;;11.20;95.00;;;;;;5067445;28;19916;-67
2021/05/18 03:26:07;;;;;;;;;;;11.10;95.00;;;;;;5066500;28;20544;-66
2021/05/18 03:28:33;;;;;;;2.47;0.60;;;11.20;94.80;;;;;;5067527;28;20285;-69
2021/05/18 03:36:09;;;;;;;2.17;0.70;;;11.30;94.40;;;;;;5067384;28;19958;-67
2021/05/18 03:38:43;;;;;;;;;;;11.30;94.40;;;;;;5067864;28;20052;-66
2021/05/18 03:41:16;;;;;;;4.32;2.35;;;11.30;94.50;;;;;;5067107;28;20356;-66
2021/05/18 03:54:23;;;;;;;4.30;0.70;;;11.30;94.30;;;;;;5066783;28;20039;-68
2021/05/18 04:05:12;;;;;;;1.58;0.90;;;11.50;93.20;;;;;;5066292;28;20086;-66
2021/05/18 04:12:53;;;;;;;1.05;0.63;;;11.60;92.80;;;;;;5066502;28;20029;-66
2021/05/18 04:18:22;;;;;;;3.85;0.70;;;11.60;92.90;;;;;;5066400;28;20078;-65
2021/05/18 04:21:10;;;;;;;1.75;0.60;;;11.60;92.90;;;;;;5066258;28;20031;-67
2021/05/18 04:40:03;;;;;;;1.95;0.70;;;11.50;93.70;;;;;;5064574;28;20024;-66
2021/05/18 04:53:29;;;;;;;5.88;0.70;;;11.70;93.50;;;;;;5066066;28;20032;-66
2021/05/18 05:04:06;;;;;;;1.60;0.43;;;11.90;93.40;;;;;;5065531;28;20024;-66
2021/05/18 05:06:42;;;;;;;;;;;;;;;;;;;;;
2021/05/18 05:16:33;;;;;;;1.40;0.45;;;12.10;92.80;;;;;;5063149;28;19915;-65
2021/05/18 05:18:58;;;;;;;;;;;12.10;92.70;;;;;;5066089;28;20099;-66
2021/05/18 05:21:29;;;;;;;1.50;0.40;;;12.10;92.80;;;;;;5065705;28;19916;-66
2021/05/18 05:23:55;;;;;;;1.75;0.43;;;12.20;93.00;;;;;;5065151;28;20036;-66
2021/05/18 05:26:20;;;;;;;;;;;12.20;93.10;;;;;;5066133;28;20104;-66
2021/05/18 05:28:46;;;;;;;3.45;0.50;;;12.20;93.10;;;;;;5063868;28;19966;-65
2021/05/18 05:31:12;;;;;;;;;;;12.10;93.20;;;;;;5064471;28;20094;-65
2021/05/18 05:33:38;;;;;;;0.63;0.40;;;12.20;92.90;;;;;;5065827;28;19962;-66
2021/05/18 05:36:04;;;;;;;2.92;0.50;;;12.20;92.60;;;;;;5067390;28;20489;-67
2021/05/18 05:38:30;;;;;;;1.30;0.50;;;12.20;92.90;;;;;;5068992;28;20550;-65
2021/05/18 05:40:57;;;;;;;3.03;0.30;;;12.20;92.90;;;;;;5069646;28;20126;-65
2021/05/18 05:43:22;;;;;;;0.52;0.30;;;12.10;93.00;;;;;;5068183;28;20037;-66
2021/05/18 05:45:51;;;;;;;;;;;12.20;92.90;;;;;;5070109;28;20105;-66
2021/05/18 05:48:18;;;;;;;2.55;0.60;;;12.30;93.00;;;;;;5069200;28;19924;-66
2021/05/18 05:50:45;;;;;;;2.17;0.40;;;12.30;92.70;;;;;;5067694;28;20324;-67
2021/05/18 05:53:10;;;;;;;3.65;0.40;;;12.40;92.60;;;;;;5068925;28;20032;-66
2021/05/18 05:55:36;;;;;;;;;;;12.50;92.50;;;;;;5069685;28;20066;-65
2021/05/18 05:58:02;;;;;;;0.70;0.40;;;12.50;92.30;;;;;;5066802;28;19912;-69
2021/05/18 06:00:27;;;;;;;;;;;12.60;92.10;;;;;;5061182;28;20524;-68
2021/05/18 06:02:53;;;;;;;2.47;0.60;;;12.60;92.10;;;;;;5047706;28;20323;-68
2021/05/18 06:05:18;;;;;;;;;;;12.70;92.10;;;;;;5048312;28;20177;-68
2021/05/18 06:07:44;;;;;;;2.88;0.50;;;12.70;92.10;;;;;;5048536;28;19912;-65
2021/05/18 06:42:48;;;;;;;3.13;0.40;;;13.80;89.30;;;;;;5028484;28;20049;-66
2021/05/18 06:47:58;;;;;;;5.93;0.40;;;14.00;88.00;;;;;;5047275;28;20068;-66
2021/05/18 06:50:30;;;;;;;3.10;0.50;;;14.00;87.60;;;;;;5048167;28;20025;-66
2021/05/18 06:52:56;;;;;;;2.50;0.40;;;14.10;87.00;;;;;;5046564;28;20460;-66
2021/05/18 06:55:26;;;;;;;3.47;0.60;;;14.00;86.00;;;;;;5047116;28;20037;-68
2021/05/18 07:00:33;;;;;;;1.80;0.88;;;14.20;86.10;;;;;;5047655;28;20115;-66
2021/05/18 07:02:59;;;;;;;0.50;0.30;;;14.20;85.50;;;;;;5047968;28;20036;-67
2021/05/18 07:08:06;;;;;;;8.07;0.50;;;14.50;84.00;;;;;;5047789;28;20493;-68
2021/05/18 07:10:32;;;;;;;2.22;0.40;;;14.50;83.90;;;;;;5047514;28;20025;-68
2021/05/18 07:12:58;;;;;;;2.42;0.50;;;14.60;83.20;;;;;;5047920;28;20025;-69
2021/05/18 07:15:26;;;;;;;2.20;0.40;;;14.60;83.40;;;;;;5047416;28;20045;-67
2021/05/18 07:17:52;;;;;;;1.77;0.40;;;14.60;83.30;;;;;;5046389;28;20481;-67
2021/05/18 07:20:18;;;;;;;2.03;0.40;;;14.70;83.20;;;;;;5047759;28;20029;-66
2021/05/18 07:22:44;;;;;;;2.22;0.50;;;14.90;82.10;;;;;;5047207;28;20063;-69
2021/05/18 07:25:10;;;;;;;1.90;0.32;;;14.90;80.80;;;;;;5047956;28;20017;-66
2021/05/18 07:27:36;;;;;;;1.45;0.40;;;15.00;81.20;;;;;;5047680;28;20516;-66
2021/05/18 07:30:02;;;;;;;4.43;0.55;;;15.10;80.60;;;;;;5045841;28;20036;-68
2021/05/18 07:32:27;;;;;;;2.85;0.30;;;15.20;80.90;;;;;;5047064;28;20531;-68
2021/05/18 07:34:55;;;;;;;3.28;0.45;;;15.30;80.30;;;;;;5047465;28;20033;-67
2021/05/18 07:37:21;;;;;;;2.30;0.60;;;15.40;78.50;;;;;;5047183;28;20025;-67
2021/05/18 07:39:47;;;;;;;1.45;0.30;;;15.50;78.20;;;;;;5047353;28;20524;-66
2021/05/18 07:42:13;;;;;;;3.10;0.40;;;15.60;78.20;;;;;;5046737;28;20115;-68
2021/05/18 07:44:40;;;;;;;3.38;0.30;;;15.70;78.10;;;;;;5047067;28;20117;-66
2021/05/18 07:47:05;;;;;;;3.33;0.50;;;15.90;77.20;;;;;;5046932;28;20114;-66
2021/05/18 07:49:35;;;;;;;0.70;0.30;;;16.10;76.30;;;;;;5045665;28;20074;-66
2021/05/18 08:05:33;;;;;;;0.43;0.30;;;16.40;74.80;;;;;;5047035;28;20048;-67
2021/05/18 08:07:59;;;;;;;1.15;0.30;;;16.60;73.40;;;;;;5046604;28;20029;-67
2021/05/18 08:12:57;;;;;;;3.53;0.40;;;16.80;72.50;;;;;;5046745;28;20045;-66
2021/05/18 10:17:26;;;;;;;;;;;;;;;;;;;;;
2021/05/18 10:22:41;;;;;;;7.68;3.85;;;21.30;54.50;;;;;;5067904;28;20039;-68
2021/05/18 10:38:35;;;;;;;11.30;0.47;;;21.10;52.30;;;;;;5068898;28;20032;-67
2021/05/18 10:41:10;;;;;;;0.73;0.20;;;21.10;51.20;;;;;;5068269;28;20335;-67
2021/05/18 10:43:36;;;;;;;10.13;0.40;;;21.20;50.60;;;;;;5068589;28;20120;-67
2021/05/18 10:46:08;;;;;;;1.25;0.40;;;21.10;50.30;;;;;;5066166;28;20409;-67
2021/05/18 10:48:40;;;;;;;4.07;0.60;;;21.20;50.10;;;;;;5067764;28;20028;-67
2021/05/18 10:51:43;;;;;;;3.00;0.77;;;21.10;49.20;;;;;;5068287;28;20214;-67
2021/05/18 10:54:24;;;;;;;0.65;0.30;;;21.00;51.70;;;;;;5066691;28;20515;-66
2021/05/18 10:57:04;;;;;;;3.22;0.30;;;21.10;50.60;;;;;;5066198;28;20052;-66
2021/05/18 10:59:53;;;;;;;1.48;0.30;;;21.10;48.40;;;;;;5062900;28;20044;-67
2021/05/18 11:02:30;;;;;;;0.40;0.20;;;21.00;48.40;;;;;;5064016;28;20420;-66
2021/05/18 11:04:58;;;;;;;2.20;0.30;;;20.90;49.10;;;;;;5066919;28;20036;-66
2021/05/18 11:07:37;;;;;;;2.97;0.30;;;20.70;49.40;;;;;;5067135;28;20028;-66
2021/05/18 11:10:13;;;;;;;0.75;0.30;;;20.60;50.50;;;;;;5064906;28;20052;-66
2021/05/18 11:12:39;;;;;;;1.55;0.22;;;20.60;48.60;;;;;;5058498;28;20116;-67
2021/05/18 11:15:11;;;;;;;0.77;0.30;;;20.50;51.50;;;;;;5052626;28;20051;-67
2021/05/18 11:17:41;;;;;;;1.05;0.30;;;20.50;51.30;;;;;;5055293;28;20028;-67
2021/05/18 11:20:20;;;;;;;1.27;0.30;;;20.50;50.30;;;;;;5052257;28;20074;-67
2021/05/18 11:26:04;;;;;;;1.67;0.30;;;20.30;52.40;;;;;;5053973;28;20620;-67
2021/05/18 11:28:35;;;;;;;14.35;0.70;;;20.40;53.00;;;;;;5045590;28;20045;-67
2021/05/18 11:31:02;;;;;;;3.20;0.40;;;20.40;52.10;;;;;;5054189;28;20060;-66
2021/05/18 11:33:29;;;;;;;1.63;0.32;;;20.40;51.80;;;;;;5054665;28;20036;-67
2021/05/18 11:36:10;;;;;;;0.90;0.30;;;20.50;53.70;;;;;;5055641;28;20033;-67
2021/05/18 11:38:41;;;;;;;2.75;0.45;;;20.50;48.80;;;;;;5053267;28;20037;-67
2021/05/18 11:41:07;;;;;;;3.75;0.30;;;20.50;51.30;;;;;;5054698;28;20061;-67
2021/05/18 11:43:36;;;;;;;3.53;0.50;;;20.60;51.10;;;;;;5053875;28;20028;-67
2021/05/18 11:46:08;;;;;;;0.88;0.35;;;20.60;50.10;;;;;;5055039;28;20449;-67
2021/05/18 11:48:34;;;;;;;2.67;0.30;;;20.80;47.90;;;;;;5054417;28;20028;-66
2021/05/18 11:51:13;;;;;;;1.00;0.22;;;20.80;47.50;;;;;;5055974;28;20025;-67
2021/05/18 11:53:51;;;;;;;1.52;0.30;;;20.70;46.10;;;;;;5054671;28;20119;-67
2021/05/18 11:56:26;;;;;;;0.68;0.28;;;20.60;47.00;;;;;;5042232;28;20061;-67
2021/05/18 11:59:21;;;;;;;1.90;0.20;;;20.60;46.30;;;;;;5042529;28;20047;-67
2021/05/18 12:01:58;;;;;;;1.00;0.30;;;20.50;46.20;;;;;;5035776;28;20088;-67
2021/05/18 12:04:26;;;;;;;7.22;0.30;;;20.40;47.80;;;;;;5047555;28;20062;-67
2021/05/18 12:06:57;;;;;;;4.53;0.30;;;20.50;46.40;;;;;;5052890;28;20112;-67
2021/05/18 12:09:24;;;;;;;1.55;0.20;;;20.60;47.70;;;;;;5055873;28;20070;-67
2021/05/18 12:12:07;;;;;;;2.75;0.30;;;20.70;47.30;;;;;;5053735;28;20039;-64
2021/05/18 12:14:41;;;;;;;0.73;0.30;;;20.90;45.70;;;;;;5052941;28;20052;-66
2021/05/18 12:17:07;;;;;;;1.27;0.30;;;20.90;44.60;;;;;;5053616;28;20040;-67
2021/05/18 12:19:37;;;;;;;3.08;0.40;;;20.80;46.50;;;;;;5054531;28;20040;-67
2021/05/18 12:22:03;;;;;;;0.73;0.20;;;20.50;46.00;;;;;;5052240;28;20087;-67
2021/05/18 12:24:28;;;;;;;2.50;0.30;;;20.30;46.40;;;;;;5051433;28;20037;-67
2021/05/18 12:27:05;;;;;;;0.98;0.30;;;20.20;47.00;;;;;;5056408;28;20048;-67
2021/05/18 12:29:35;;;;;;;;;;;20.10;48.60;;;;;;5051508;28;20146;-66
2021/05/18 12:32:27;;;;;;;9.20;0.30;;;20.00;47.80;;;;;;5053362;28;19955;-68
2021/05/18 12:34:55;;;;;;;3.78;0.40;;;20.00;50.60;;;;;;5052733;28;20120;-67
2021/05/18 12:37:48;;;;;;;4.15;0.30;;;20.00;51.70;;;;;;5053236;28;20036;-66
2021/05/18 12:40:28;;;;;;;3.35;0.60;;;20.20;52.20;;;;;;5055440;28;20032;-66
2021/05/18 12:43:06;;;;;;;2.95;0.30;;;20.10;52.90;;;;;;5044797;28;20088;-67
2021/05/18 12:45:32;;;;;;;1.20;0.35;;;20.00;53.40;;;;;;5043427;28;20760;-66
2021/05/18 12:48:00;;;;;;;0.52;0.30;;;20.10;54.10;;;;;;5045176;28;20057;-67
2021/05/18 12:50:48;;;;;;;0.40;0.30;;;20.20;53.60;;;;;;5045159;28;20072;-67
2021/05/18 12:53:28;;;;;;;1.13;0.30;;;20.30;53.10;;;;;;5045403;28;20032;-67
2021/05/18 12:55:55;;;;;;;2.47;0.30;;;20.40;52.50;;;;;;5043868;28;20573;-68
2021/05/18 12:58:25;;;;;;;1.95;0.30;;;20.40;50.80;;;;;;5043795;28;20135;-66
2021/05/18 13:00:51;;;;;;;6.05;1.10;;;20.40;51.60;;;;;;5042796;28;20060;-66
2021/05/18 13:03:17;;;;;;;0.85;0.30;;;20.40;50.60;;;;;;5042659;28;20113;-67
2021/05/18 13:05:49;;;;;;;1.83;0.40;;;20.40;50.40;;;;;;5044910;28;20044;-67
2021/05/18 13:08:17;;;;;;;4.75;1.50;;;20.40;50.30;;;;;;5044989;28;20102;-68
2021/05/18 13:11:15;;;;;;;0.55;0.20;;;20.50;51.50;;;;;;5043733;28;20037;-67
2021/05/18 13:13:41;;;;;;;2.22;0.30;;;20.60;50.50;;;;;;5048403;28;20434;-66
2021/05/18 13:16:15;;;;;;;4.82;0.32;;;20.50;50.60;;;;;;5065078;28;20564;-67
2021/05/18 13:18:50;;;;;;;3.88;0.30;;;20.40;51.60;;;;;;5061047;28;20044;-66
2021/05/18 13:21:22;;;;;;;1.50;0.20;;;20.40;52.90;;;;;;5063536;28;20052;-66
2021/05/18 13:26:30;;;;;;;1.67;0.30;;;20.20;52.70;;;;;;5044361;28;20107;-66
2021/05/18 13:29:04;;;;;;;2.72;0.30;;;19.90;52.90;;;;;;5046681;28;20020;-66
2021/05/18 13:31:31;;;;;;;0.60;0.20;;;19.70;54.00;;;;;;5050537;28;20067;-66
2021/05/18 13:33:58;;;;;;;0.35;0.20;;;19.70;54.50;;;;;;5051395;28;20048;-66
2021/05/18 13:36:31;;;;;;;2.33;0.20;;;19.80;54.30;;;;;;5053030;28;20047;-64
2021/05/18 13:38:57;;;;;;;0.63;0.45;;;19.70;54.80;;;;;;5052844;28;20033;-67
2021/05/18 13:41:23;;;;;;;1.70;0.20;;;19.70;55.50;;;;;;5050164;28;20037;-66
2021/05/18 13:43:48;;;;;;;2.88;0.22;;;19.70;54.40;;;;;;5049760;28;20501;-67
2021/05/18 13:46:14;;;;;;;0.40;0.20;;;19.80;53.00;;;;;;5053584;28;20064;-66
2021/05/18 13:48:40;;;;;;;0.90;0.30;;;19.80;54.00;;;;;;5052066;28;20037;-66
2021/05/18 13:51:10;;;;;;;1.10;0.30;;;19.80;52.90;;;;;;5053006;28;20037;-66
2021/05/18 13:53:35;;;;;;;1.27;0.40;;;19.80;51.90;;;;;;5057096;28;20036;-66
2021/05/18 13:56:02;;;;;;;2.95;0.30;;;19.80;51.50;;;;;;5053688;28;20344;-66
2021/05/18 13:58:27;;;;;;;0.70;0.28;;;19.80;52.30;;;;;;5051846;28;20024;-65
2021/05/18 14:00:53;;;;;;;0.30;0.20;;;19.70;53.00;;;;;;5068179;28;20047;-68
2021/05/18 14:03:21;;;;;;;2.45;0.20;;;19.70;53.80;;;;;;5064918;28;20331;-67
2021/05/18 14:05:47;;;;;;;0.82;0.10;;;19.60;54.30;;;;;;5066705;28;20051;-66
2021/05/18 14:08:23;;;;;;;0.82;0.20;;;19.60;54.40;;;;;;5063648;28;20484;-66
2021/05/18 14:11:06;;;;;;;0.43;0.28;;;19.70;55.20;;;;;;5063475;28;20095;-67
2021/05/18 14:13:36;;;;;;;0.52;0.30;;;19.70;55.80;;;;;;5056289;28;20095;-67
2021/05/18 14:16:02;;;;;;;1.95;0.25;;;19.80;54.00;;;;;;5064639;28;20060;-68
2021/05/18 14:18:28;;;;;;;0.60;0.20;;;19.90;56.20;;;;;;5066234;28;20048;-67
2021/05/18 14:20:55;;;;;;;1.23;0.30;;;19.90;54.40;;;;;;5068328;28;20108;-67
2021/05/18 14:23:23;;;;;;;2.40;0.30;;;19.80;53.60;;;;;;5066962;28;20044;-67
2021/05/18 14:25:50;;;;;;;8.10;0.50;;;19.80;52.90;;;;;;5067599;28;20031;-67
2021/05/18 14:28:15;;;;;;;6.53;0.40;;;19.70;53.70;;;;;;5067420;28;20143;-67
2021/05/18 14:30:45;;;;;;;1.15;0.28;;;19.60;54.90;;;;;;5064440;28;20104;-67
2021/05/18 14:33:11;;;;;;;2.95;0.30;;;19.60;55.10;;;;;;5062019;28;20037;-66
2021/05/18 14:35:37;;;;;;;1.75;0.20;;;19.60;53.70;;;;;;5055984;28;20417;-68
2021/05/18 14:46:28;;;;;;;1.25;0.30;;;19.20;52.90;;;;;;5059435;28;20068;-67
2021/05/18 14:54:49;;;;;;;0.40;0.30;;;18.90;52.70;;;;;;5056653;28;20047;-66
2021/05/18 14:57:15;;;;;;;2.92;0.38;;;18.90;52.30;;;;;;5051366;28;20033;-66
2021/05/18 14:59:41;;;;;;;4.57;0.20;;;18.70;52.60;;;;;;5052160;28;20543;-66
2021/05/18 15:02:06;;;;;;;0.38;0.20;;;18.60;53.90;;;;;;5051569;28;20068;-67
2021/05/18 15:04:34;;;;;;;12.57;0.40;;;18.60;55.60;;;;;;5046369;28;20029;-67
2021/05/18 15:07:06;;;;;;;4.32;0.30;;;18.60;56.90;;;;;;5047596;28;20025;-68
2021/05/18 15:09:32;;;;;;;3.22;0.20;;;18.60;57.00;;;;;;5047615;28;20025;-67
2021/05/18 15:11:57;;;;;;;0.40;0.20;;;18.60;58.00;;;;;;5047676;28;20282;-67
2021/05/18 15:14:23;;;;;;;3.38;0.20;;;18.60;57.50;;;;;;5047629;28;20025;-67
2021/05/18 15:16:49;;;;;;;3.13;0.25;;;18.60;57.50;;;;;;5046872;28;20563;-67
2021/05/18 15:19:18;;;;;;;2.80;0.30;;;18.60;56.60;;;;;;5048035;28;20021;-68
2021/05/18 15:21:44;;;;;;;4.53;0.30;;;18.60;57.10;;;;;;5047050;28;20041;-66
2021/05/18 15:24:11;;;;;;;1.77;0.22;;;18.70;56.50;;;;;;5046976;28;20021;-68
2021/05/18 15:26:37;;;;;;;1.25;0.20;;;18.70;55.60;;;;;;5045104;28;20033;-67
2021/05/18 15:29:04;;;;;;;5.53;0.40;;;18.60;56.50;;;;;;5046698;28;20013;-67
2021/05/18 15:31:30;;;;;;;1.35;0.30;;;18.60;57.50;;;;;;5046499;28;20021;-68
2021/05/18 15:33:55;;;;;;;0.88;0.20;;;18.50;57.10;;;;;;5046766;28;20028;-68
2021/05/18 15:36:21;;;;;;;0.30;0.20;;;18.40;57.60;;;;;;5047980;28;20039;-69
2021/05/18 15:38:47;;;;;;;1.48;0.30;;;18.30;58.20;;;;;;5047246;28;20033;-69
2021/05/18 15:41:15;;;;;;;0.30;0.20;;;18.10;59.50;;;;;;5047235;28;20482;-66
2021/05/18 15:43:43;;;;;;;0.50;0.30;;;18.10;60.00;;;;;;5047032;28;20029;-67
2021/05/18 15:46:10;;;;;;;0.30;0.20;;;18.00;60.20;;;;;;5047257;28;20079;-67
2021/05/18 15:48:35;;;;;;;0.73;0.20;;;17.90;60.70;;;;;;5047147;28;20565;-68
2021/05/18 15:51:02;;;;;;;2.22;0.30;;;17.90;59.00;;;;;;5046877;28;20104;-68
2021/05/18 15:53:28;;;;;;;0.40;0.20;;;17.90;57.60;;;;;;5047436;28;20037;-69
2021/05/18 15:55:54;;;;;;;1.83;0.50;;;17.90;54.40;;;;;;5046545;28;20493;-66
2021/05/18 15:58:19;;;;;;;0.50;0.20;;;17.90;55.00;;;;;;5045304;28;20032;-68
2021/05/18 16:00:51;;;;;;;2.72;0.30;;;17.90;54.90;;;;;;5045354;28;20025;-67
2021/05/18 16:03:16;;;;;;;1.20;0.25;;;17.90;54.70;;;;;;5046695;28;20414;-67
2021/05/18 16:05:42;;;;;;;0.85;0.40;;;17.90;55.80;;;;;;5046862;28;20025;-67
2021/05/18 16:08:58;;;;;;;0.65;0.30;;;17.90;55.70;;;;;;5046435;28;20499;-67
2021/05/18 16:11:02;;;;;;;0.45;0.28;;;18.00;55.30;;;;;;5046440;28;20087;-67
2021/05/18 16:13:28;;;;;;;4.60;0.30;;;18.00;55.60;;;;;;5046167;28;20261;-67
2021/05/18 16:16:00;;;;;;;0.65;0.20;;;18.10;56.70;;;;;;5046735;28;20067;-67
2021/05/18 16:18:25;;;;;;;3.40;0.30;;;18.10;56.80;;;;;;5046455;28;20086;-66
2021/05/18 16:20:52;;;;;;;1.13;0.30;;;18.20;54.70;;;;;;5045683;28;20032;-67
2021/05/18 16:23:18;;;;;;;2.72;0.20;;;18.20;54.70;;;;;;5046550;28;20072;-66
2021/05/18 16:25:44;;;;;;;3.78;0.30;;;18.20;55.60;;;;;;5046249;28;20520;-67
2021/05/18 16:28:09;;;;;;;0.80;0.30;;;18.20;55.40;;;;;;5044695;28;20397;-67
2021/05/18 16:30:35;;;;;;;0.55;0.22;;;18.10;55.50;;;;;;5046294;28;20096;-66
2021/05/18 16:33:02;;;;;;;0.90;0.20;;;18.00;55.80;;;;;;5044671;28;20048;-67
2021/05/18 16:35:28;;;;;;;0.32;0.13;;;18.00;56.50;;;;;;5044857;28;20551;-67
2021/05/18 16:37:53;;;;;;;0.45;0.20;;;18.00;56.60;;;;;;5046356;28;20025;-67
2021/05/18 16:40:19;;;;;;;1.70;0.68;;;17.90;56.00;;;;;;5046162;28;20717;-67
2021/05/18 16:42:45;;;;;;;1.58;0.30;;;17.90;56.30;;;;;;5046010;28;20081;-67
2021/05/18 16:45:11;;;;;;;1.08;0.40;;;17.90;56.30;;;;;;5045895;28;20032;-68
2021/05/18 16:47:37;;;;;;;0.98;0.20;;;17.90;57.30;;;;;;5044527;28;20193;-66
2021/05/18 16:50:07;;;;;;;0.90;0.20;;;17.90;57.60;;;;;;5046020;28;20042;-67
2021/05/18 16:52:33;;;;;;;3.38;0.43;;;17.90;58.50;;;;;;5045941;28;20033;-66
2021/05/18 16:54:59;;;;;;;1.92;0.77;;;17.90;58.20;;;;;;5045693;28;20025;-66
2021/05/18 16:57:24;;;;;;;9.40;0.90;;;17.90;57.60;;;;;;5044653;28;20120;-66
2021/05/18 16:59:50;;;;;;;1.15;0.40;;;17.90;58.50;;;;;;5045881;28;20040;-67
2021/05/18 17:02:16;;;;;;;2.97;0.40;;;17.90;58.30;;;;;;5045986;28;20044;-66
2021/05/18 17:04:41;;;;;;;2.08;0.30;;;17.90;58.50;;;;;;5046015;28;20025;-67
2021/05/18 17:07:07;;;;;;;1.83;0.50;;;17.80;58.90;;;;;;5046428;28;20379;-67
2021/05/18 17:09:32;;;;;;;0.40;0.30;;;17.70;59.40;;;;;;5046076;28;20150;-67
2021/05/18 17:12:00;;;;;;;0.43;0.30;;;17.70;59.20;;;;;;5045617;28;20031;-66
2021/05/18 17:14:26;;;;;;;0.30;0.20;;;17.50;59.50;;;;;;5045583;28;20040;-66
2021/05/18 17:16:52;;;;;;;0.20;0.20;;;17.40;59.00;;;;;;5046127;28;20025;-67
2021/05/18 17:19:17;;;;;;;0.28;0.20;;;17.30;59.20;;;;;;5046129;28;20045;-67
2021/05/18 17:21:43;;;;;;;1.42;0.20;;;17.10;58.90;;;;;;5045460;28;20112;-68
2021/05/18 17:24:10;;;;;;;0.47;0.13;;;17.00;59.30;;;;;;5044737;28;20068;-68
2021/05/18 17:26:36;;;;;;;0.95;0.20;;;16.90;59.20;;;;;;5045425;28;20025;-67
2021/05/18 17:29:02;;;;;;;0.47;0.20;;;16.90;58.60;;;;;;5045664;28;20029;-67
2021/05/18 17:31:28;;;;;;;0.20;0.20;;;16.80;58.30;;;;;;5048521;28;20287;-67
2021/05/18 17:33:53;;;;;;;3.03;0.20;;;16.70;58.20;;;;;;5049753;28;20529;-67
2021/05/18 17:36:20;;;;;;;0.57;0.20;;;16.70;58.80;;;;;;5049606;28;20370;-68
2021/05/18 17:38:46;;;;;;;2.80;0.30;;;16.60;58.70;;;;;;5049351;28;20052;-67
2021/05/18 17:41:11;;;;;;;1.08;0.47;;;16.50;59.40;;;;;;5047285;28;20029;-67
2021/05/18 17:43:37;;;;;;;0.90;0.30;;;16.40;60.00;;;;;;5048030;28;20222;-67
2021/05/18 17:46:06;;;;;;;1.13;0.45;;;16.30;59.70;;;;;;5049075;28;20029;-68
2021/05/18 17:48:32;;;;;;;1.80;0.70;;;16.20;59.80;;;;;;5049515;28;20110;-70
2021/05/18 17:50:57;;;;;;;3.50;0.40;;;16.10;60.50;;;;;;5049647;28;20064;-68
2021/05/18 17:53:23;;;;;;;;;;;16.00;60.80;;;;;;5049029;28;20031;-69
2021/05/18 17:55:49;;;;;;;0.57;0.30;;;15.90;61.60;;;;;;5048335;28;19908;-67
2021/05/18 17:58:15;;;;;;;4.68;0.52;;;15.80;61.80;;;;;;5048677;28;20500;-67
2021/05/18 18:00:41;;;;;;;0.70;0.30;;;15.70;62.30;;;;;;5047849;28;20037;-69
2021/05/18 18:03:07;;;;;;;3.42;0.50;;;15.50;63.00;;;;;;5049106;28;20555;-68
2021/05/18 18:05:32;;;;;;;1.65;0.40;;;15.40;63.40;;;;;;5049365;28;20021;-68
2021/05/18 18:07:58;;;;;;;1.25;0.50;;;15.30;64.20;;;;;;5048887;28;20033;-68
2021/05/18 18:10:24;;;;;;;;;;;15.20;64.80;;;;;;5049186;28;20021;-66
2021/05/18 18:12:50;;;;;;;1.60;0.40;;;15.00;65.90;;;;;;5048587;28;20664;-66
2021/05/18 18:15:17;;;;;;;2.22;0.43;;;14.90;66.30;;;;;;5049111;28;20025;-67
2021/05/18 18:17:44;;;;;;;1.75;0.60;;;14.80;67.10;;;;;;5049159;28;20107;-67
2021/05/18 18:20:11;;;;;;;5.22;0.40;;;14.70;67.80;;;;;;5047546;28;20025;-67